Time,TemperatureF,DewpointF,PressureIn,WindDirection,WindDirectionDegrees,WindSpeedMPH,WindSpeedGustMPH,Humidity,HourlyPrecipIn,Conditions,Clouds,dailyrainin,SolarRadiationWatts/m^2,SoftwareType,DateUTC
2013-08-09 00:01:00,56.0,34.0,-100.00,North,1,10.0,16.0,43,0.00,,,0.00,3.000000,,2013-08-09 07:01:00,
2013-08-09 00:12:00,56.0,34.0,-100.00,North,1,10.0,16.0,43,0.00,,,0.00,3.000000,,2013-08-09 07:12:00,
2013-08-09 00:43:00,56.0,29.0,-100.00,North,1,10.0,14.0,36,0.00,,,0.00,3.000000,,2013-08-09 07:43:00,
2013-08-09 00:53:00,56.0,29.0,-100.00,North,1,10.0,14.0,36,0.00,,,0.00,3.000000,,2013-08-09 07:53:00,
2013-08-09 01:02:00,56.0,29.0,-100.00,North,1,10.0,14.0,36,0.00,,,0.00,3.000000,,2013-08-09 08:02:00,
2013-08-09 01:11:00,56.0,29.0,-100.00,North,1,10.0,14.0,36,0.00,,,0.00,3.000000,,2013-08-09 08:11:00,
2013-08-09 01:43:00,56.0,26.0,-100.00,North,1,11.0,15.0,31,0.00,,,0.00,3.000000,,2013-08-09 08:43:00,
2013-08-09 01:53:00,56.0,26.0,-100.00,North,1,11.0,15.0,31,0.00,,,0.00,3.000000,,2013-08-09 08:53:00,
2013-08-09 02:02:00,56.0,26.0,-100.00,North,1,11.0,15.0,31,0.00,,,0.00,3.000000,,2013-08-09 09:02:00,
2013-08-09 02:12:00,56.0,26.0,-100.00,North,1,11.0,15.0,31,0.00,,,0.00,3.000000,,2013-08-09 09:12:00,
2013-08-09 02:43:00,56.0,24.0,-100.00,North,1,10.0,15.0,29,0.00,,,0.00,3.000000,,2013-08-09 09:43:00,
2013-08-09 02:52:00,56.0,24.0,-100.00,North,1,10.0,15.0,29,0.00,,,0.00,3.000000,,2013-08-09 09:52:00,
2013-08-09 03:01:00,56.0,24.0,-100.00,North,1,10.0,15.0,29,0.00,,,0.00,3.000000,,2013-08-09 10:01:00,
2013-08-09 03:12:00,56.0,24.0,-100.00,North,1,10.0,15.0,29,0.00,,,0.00,3.000000,,2013-08-09 10:12:00,
2013-08-09 03:43:00,54.0,30.0,-100.00,North,1,8.0,13.0,40,0.00,,,0.00,3.000000,,2013-08-09 10:43:00,
2013-08-09 03:53:00,54.0,30.0,-100.00,North,1,8.0,13.0,40,0.00,,,0.00,3.000000,,2013-08-09 10:53:00,
2013-08-09 04:01:00,54.0,30.0,-100.00,North,1,8.0,13.0,40,0.00,,,0.00,3.000000,,2013-08-09 11:01:00,
2013-08-09 04:11:00,54.0,30.0,-100.00,North,1,8.0,13.0,40,0.00,,,0.00,3.000000,,2013-08-09 11:11:00,
2013-08-09 04:43:00,54.0,23.0,-100.00,North,1,8.0,12.0,30,0.00,,,0.00,3.000000,,2013-08-09 11:43:00,
2013-08-09 04:53:00,54.0,23.0,-100.00,North,1,8.0,12.0,30,0.00,,,0.00,3.000000,,2013-08-09 11:53:00,
2013-08-09 05:02:00,54.0,23.0,-100.00,North,1,8.0,12.0,30,0.00,,,0.00,3.000000,,2013-08-09 12:02:00,
2013-08-09 05:12:00,54.0,23.0,-100.00,North,1,8.0,12.0,30,0.00,,,0.00,3.000000,,2013-08-09 12:12:00,
2013-08-09 05:43:00,55.0,17.0,-100.00,North,1,8.0,13.0,22,0.00,,,0.00,3.000000,,2013-08-09 12:43:00,
2013-08-09 05:52:00,55.0,17.0,-100.00,North,1,8.0,13.0,22,0.00,,,0.00,3.000000,,2013-08-09 12:52:00,
2013-08-09 06:01:00,55.0,17.0,-100.00,North,1,8.0,13.0,22,0.00,,,0.00,3.000000,,2013-08-09 13:01:00,
2013-08-09 06:12:00,55.0,17.0,-100.00,North,1,8.0,13.0,22,0.00,,,0.00,3.000000,,2013-08-09 13:12:00,
2013-08-09 07:43:00,59.0,5.0,-100.00,North,1,10.0,17.0,11,0.00,,,0.00,89.000000,,2013-08-09 14:43:00,
2013-08-09 07:53:00,59.0,5.0,-100.00,North,1,10.0,17.0,11,0.00,,,0.00,89.000000,,2013-08-09 14:53:00,
2013-08-09 08:44:00,62.0,11.0,-100.00,North,1,10.0,17.0,13,0.00,,,0.00,342.000000,,2013-08-09 15:44:00,
2013-08-09 08:53:00,62.0,11.0,-100.00,North,1,10.0,17.0,13,0.00,,,0.00,342.000000,,2013-08-09 15:53:00,
2013-08-09 09:43:00,63.0,18.0,-100.00,North,1,9.0,15.0,17,0.00,,,0.00,585.000000,,2013-08-09 16:43:00,
2013-08-09 09:53:00,63.0,18.0,-100.00,North,1,9.0,15.0,17,0.00,,,0.00,585.000000,,2013-08-09 16:53:00,
2013-08-09 10:02:00,63.0,18.0,-100.00,North,1,9.0,15.0,17,0.00,,,0.00,585.000000,,2013-08-09 17:02:00,
2013-08-09 10:11:00,63.0,18.0,-100.00,North,1,9.0,15.0,17,0.00,,,0.00,585.000000,,2013-08-09 17:11:00,
2013-08-09 10:43:00,64.0,28.0,-100.00,North,1,10.0,15.0,26,0.00,,,0.00,801.000000,,2013-08-09 17:43:00,
2013-08-09 10:52:00,64.0,28.0,-100.00,North,1,10.0,15.0,26,0.00,,,0.00,801.000000,,2013-08-09 17:52:00,
2013-08-09 11:01:00,64.0,28.0,-100.00,North,1,10.0,15.0,26,0.00,,,0.00,801.000000,,2013-08-09 18:01:00,
2013-08-09 11:11:00,64.0,28.0,-100.00,North,1,10.0,15.0,26,0.00,,,0.00,801.000000,,2013-08-09 18:11:00,
2013-08-09 11:43:00,65.0,28.0,-100.00,North,0,12.0,17.0,25,0.00,,,0.00,972.000000,,2013-08-09 18:43:00,
2013-08-09 11:53:00,65.0,28.0,-100.00,North,0,12.0,17.0,25,0.00,,,0.00,972.000000,,2013-08-09 18:53:00,
2013-08-09 12:02:00,65.0,28.0,-100.00,North,0,12.0,17.0,25,0.00,,,0.00,972.000000,,2013-08-09 19:02:00,
2013-08-09 12:11:00,65.0,28.0,-100.00,North,0,12.0,17.0,25,0.00,,,0.00,972.000000,,2013-08-09 19:11:00,
2013-08-09 12:43:00,65.0,31.0,-100.00,North,0,11.0,17.0,28,0.00,,,0.00,1087.000000,,2013-08-09 19:43:00,
2013-08-09 12:52:00,65.0,31.0,-100.00,North,0,11.0,17.0,28,0.00,,,0.00,1087.000000,,2013-08-09 19:52:00,
2013-08-09 13:02:00,65.0,31.0,-100.00,North,0,11.0,17.0,28,0.00,,,0.00,1087.000000,,2013-08-09 20:02:00,
2013-08-09 13:11:00,65.0,31.0,-100.00,North,0,11.0,17.0,28,0.00,,,0.00,1087.000000,,2013-08-09 20:11:00,
2013-08-09 13:43:00,66.0,28.0,-100.00,North,0,11.0,18.0,24,0.00,,,0.00,1132.000000,,2013-08-09 20:43:00,
2013-08-09 13:52:00,66.0,28.0,-100.00,North,0,11.0,18.0,24,0.00,,,0.00,1132.000000,,2013-08-09 20:52:00,
2013-08-09 14:01:00,66.0,28.0,-100.00,North,0,11.0,18.0,24,0.00,,,0.00,1132.000000,,2013-08-09 21:01:00,
2013-08-09 14:12:00,66.0,28.0,-100.00,North,0,11.0,18.0,24,0.00,,,0.00,1132.000000,,2013-08-09 21:12:00,
2013-08-09 14:43:00,67.0,34.0,-100.00,North,0,11.0,19.0,29,0.00,,,0.00,1114.000000,,2013-08-09 21:43:00,
2013-08-09 14:52:00,67.0,34.0,-100.00,North,0,11.0,19.0,29,0.00,,,0.00,1114.000000,,2013-08-09 21:52:00,
2013-08-09 15:01:00,67.0,34.0,-100.00,North,0,11.0,19.0,29,0.00,,,0.00,1114.000000,,2013-08-09 22:01:00,
2013-08-09 15:11:00,67.0,34.0,-100.00,North,0,11.0,19.0,29,0.00,,,0.00,1114.000000,,2013-08-09 22:11:00,
2013-08-09 15:42:00,67.0,35.0,-100.00,North,0,11.0,19.0,30,0.00,,,0.00,1031.000000,,2013-08-09 22:42:00,
2013-08-09 15:52:00,67.0,35.0,-100.00,North,0,11.0,19.0,30,0.00,,,0.00,1031.000000,,2013-08-09 22:52:00,
2013-08-09 16:01:00,67.0,35.0,-100.00,North,0,11.0,19.0,30,0.00,,,0.00,1031.000000,,2013-08-09 23:01:00,
2013-08-09 16:11:00,67.0,35.0,-100.00,North,0,11.0,19.0,30,0.00,,,0.00,1031.000000,,2013-08-09 23:11:00,
2013-08-09 16:43:00,66.0,36.0,-100.00,North,0,9.0,17.0,33,0.00,,,0.00,877.000000,,2013-08-09 23:43:00,
2013-08-09 16:52:00,66.0,36.0,-100.00,North,0,9.0,17.0,33,0.00,,,0.00,877.000000,,2013-08-09 23:52:00,
2013-08-09 17:01:00,66.0,36.0,-100.00,North,0,9.0,17.0,33,0.00,,,0.00,877.000000,,2013-08-10 00:01:00,
2013-08-09 17:11:00,66.0,36.0,-100.00,North,0,9.0,17.0,33,0.00,,,0.00,877.000000,,2013-08-10 00:11:00,
2013-08-09 17:43:00,65.0,39.0,-100.00,North,0,10.0,17.0,38,0.00,,,0.00,678.000000,,2013-08-10 00:43:00,
2013-08-09 17:52:00,65.0,39.0,-100.00,North,0,10.0,17.0,38,0.00,,,0.00,678.000000,,2013-08-10 00:52:00,
2013-08-09 18:01:00,65.0,39.0,-100.00,North,0,10.0,17.0,38,0.00,,,0.00,678.000000,,2013-08-10 01:01:00,
2013-08-09 18:11:00,65.0,39.0,-100.00,North,0,10.0,17.0,38,0.00,,,0.00,678.000000,,2013-08-10 01:11:00,
2013-08-09 18:42:00,62.0,41.0,-100.00,North,0,10.0,14.0,46,0.00,,,0.00,445.000000,,2013-08-10 01:42:00,
2013-08-09 18:52:00,62.0,41.0,-100.00,North,0,10.0,14.0,46,0.00,,,0.00,445.000000,,2013-08-10 01:52:00,
2013-08-09 19:03:00,62.0,41.0,-100.00,North,0,10.0,14.0,46,0.00,,,0.00,445.000000,,2013-08-10 02:03:00,
2013-08-09 19:11:00,62.0,41.0,-100.00,North,0,10.0,14.0,46,0.00,,,0.00,445.000000,,2013-08-10 02:11:00,
2013-08-09 21:01:00,52.0,46.0,-100.00,North,1,12.0,16.0,80,0.00,,,0.00,9.000000,,2013-08-10 04:01:00,
2013-08-09 21:12:00,52.0,46.0,-100.00,North,1,12.0,16.0,80,0.00,,,0.00,9.000000,,2013-08-10 04:12:00,
2013-08-09 21:43:00,54.0,41.0,-100.00,North,1,13.0,18.0,61,0.00,,,0.00,3.000000,,2013-08-10 04:43:00,
2013-08-09 21:53:00,54.0,41.0,-100.00,North,1,13.0,18.0,61,0.00,,,0.00,3.000000,,2013-08-10 04:53:00,
2013-08-09 22:02:00,54.0,41.0,-100.00,North,1,13.0,18.0,61,0.00,,,0.00,3.000000,,2013-08-10 05:02:00,
2013-08-09 22:11:00,54.0,41.0,-100.00,North,1,13.0,18.0,61,0.00,,,0.00,3.000000,,2013-08-10 05:11:00,
2013-08-09 22:43:00,53.0,42.0,-100.00,North,1,9.0,16.0,67,0.00,,,0.00,3.000000,,2013-08-10 05:43:00,
2013-08-09 22:52:00,53.0,42.0,-100.00,North,1,9.0,16.0,67,0.00,,,0.00,3.000000,,2013-08-10 05:52:00,
2013-08-09 23:02:00,53.0,42.0,-100.00,North,1,9.0,16.0,67,0.00,,,0.00,3.000000,,2013-08-10 06:02:00,
2013-08-09 23:11:00,53.0,42.0,-100.00,North,1,9.0,16.0,67,0.00,,,0.00,3.000000,,2013-08-10 06:11:00,
2013-08-09 23:44:00,52.0,45.0,-100.00,North,1,10.0,12.0,76,0.00,,,0.00,3.000000,,2013-08-10 06:44:00,
2013-08-09 23:53:00,52.0,45.0,-100.00,North,1,10.0,12.0,76,0.00,,,0.00,3.000000,,2013-08-10 06:53:00,